Time;durP1;ratioP1;P1;durP2;ratioP2;P2;SDS_P1;SDS_P2;PMS_P1;PMS_P2;Temp;Humidity;BMP_temperature;BMP_pressure;BME280_temperature;BME280_humidity;BME280_pressure;Samples;Min_cycle;Max_cycle;Signal;HPM_P1;HPM_P2
2021/08/26 00:00:35;;;;;;;10.30;6.28;;;;;;;15.15;69.20;98830.19;2622819;46;20039;-67
2021/08/26 00:05:51;;;;;;;9.60;6.93;;;;;;;15.07;69.27;98841.94;2617869;54;20026;-72
2021/08/26 00:08:25;;;;;;;11.55;6.68;;;;;;;14.99;69.64;98839.56;2616876;54;20027;-72
2021/08/26 00:10:57;;;;;;;8.38;6.50;;;;;;;14.89;69.70;98833.94;2617415;51;20061;-71
2021/08/26 00:13:26;;;;;;;11.43;6.28;;;;;;;14.89;69.78;98836.59;2618421;39;20437;-72
2021/08/26 00:15:58;;;;;;;8.05;6.25;;;;;;;14.90;70.15;98824.91;2617539;47;20082;-72
2021/08/26 00:18:28;;;;;;;8.13;5.95;;;;;;;14.92;69.82;98823.66;2617238;54;20039;-72
2021/08/26 00:20:59;;;;;;;12.15;6.43;;;;;;;14.89;70.02;98821.44;2617958;54;20039;-72
2021/08/26 00:23:31;;;;;;;9.85;6.15;;;;;;;14.90;69.95;98816.91;2619380;54;20030;-72
2021/08/26 00:26:01;;;;;;;8.90;5.68;;;;;;;14.95;69.78;98812.56;2621958;54;20055;-72
2021/08/26 00:28:30;;;;;;;8.23;6.63;;;;;;;15.00;69.41;98803.94;2619965;54;20041;-72
2021/08/26 00:31:00;;;;;;;9.40;6.85;;;;;;;14.97;69.80;98812.34;2623863;54;20037;-73
2021/08/26 00:33:30;;;;;;;9.77;6.65;;;;;;;14.95;69.26;98806.44;2622973;47;20030;-72
2021/08/26 00:36:00;;;;;;;8.10;6.20;;;;;;;14.95;69.30;98803.78;2623857;39;20104;-72
2021/08/26 00:38:32;;;;;;;8.43;6.32;;;;;;;14.92;69.62;98801.56;2623459;39;20405;-72
2021/08/26 00:41:02;;;;;;;10.18;6.05;;;;;;;14.80;69.64;98817.44;2623830;54;20025;-72
2021/08/26 00:43:33;;;;;;;8.85;6.60;;;;;;;14.72;70.20;98813.19;2622134;39;20434;-73
2021/08/26 00:46:03;;;;;;;8.70;6.65;;;;;;;14.68;69.77;98811.19;2621700;51;20034;-72
2021/08/26 00:48:33;;;;;;;10.63;6.53;;;;;;;14.70;70.07;98806.47;2622466;54;20031;-72
2021/08/26 00:51:02;;;;;;;11.18;7.30;;;;;;;14.65;70.14;98806.31;2619857;39;20438;-72
2021/08/26 00:53:35;;;;;;;8.57;6.38;;;;;;;14.65;70.08;98806.31;2618035;54;20023;-72
2021/08/26 00:56:04;;;;;;;10.23;6.55;;;;;;;14.64;70.22;98802.84;2617438;47;20026;-72
2021/08/26 00:58:34;;;;;;;10.27;6.65;;;;;;;14.68;69.94;98797.91;2617516;54;20027;-73
2021/08/26 01:01:06;;;;;;;10.95;6.22;;;;;;;14.67;70.02;98797.09;2617685;54;20046;-72
2021/08/26 01:03:45;;;;;;;10.95;6.70;;;;;;;14.68;69.51;98792.56;2618415;54;20026;-72
2021/08/26 01:06:20;;;;;;;9.57;6.32;;;;;;;14.62;69.84;98791.63;2618843;54;20050;-72
2021/08/26 01:09:02;;;;;;;10.13;6.55;;;;;;;14.64;69.78;98786.06;2617463;31;20614;-72
2021/08/26 01:11:35;;;;;;;9.75;6.45;;;;;;;14.60;69.73;98794.47;2617650;47;20030;-71
2021/08/26 01:14:06;;;;;;;8.68;6.30;;;;;;;14.55;69.79;98783.69;2617930;54;20031;-71
2021/08/26 01:16:38;;;;;;;10.20;6.80;;;;;;;14.48;69.87;98784.72;2617348;54;20143;-70
2021/08/26 01:19:08;;;;;;;11.15;6.78;;;;;;;14.45;69.87;98774.53;2617954;54;20027;-73
2021/08/26 01:21:37;;;;;;;10.07;6.65;;;;;;;14.36;70.00;98776.66;2618041;54;20064;-71
2021/08/26 01:24:15;;;;;;;10.32;6.10;;;;;;;14.34;70.27;98782.19;2617961;54;20031;-72
2021/08/26 01:26:51;;;;;;;9.43;6.10;;;;;;;14.38;69.87;98777.25;2617825;54;20057;-72
2021/08/26 01:29:20;;;;;;;10.05;6.45;;;;;;;14.40;70.11;98782.34;2617159;47;20079;-71
2021/08/26 01:31:50;;;;;;;9.57;6.45;;;;;;;14.41;69.91;98782.16;2617909;54;20057;-71
2021/08/26 01:34:22;;;;;;;9.65;6.20;;;;;;;14.39;70.12;98784.19;2618350;54;20589;-71
2021/08/26 01:36:52;;;;;;;8.73;6.38;;;;;;;14.37;70.13;98787.09;2617646;54;20550;-73
2021/08/26 01:39:21;;;;;;;10.70;6.35;;;;;;;14.38;70.01;98788.72;2617838;54;20029;-72
2021/08/26 01:41:55;;;;;;;8.88;6.25;;;;;;;14.33;70.09;98793.88;2618215;39;20443;-72
2021/08/26 01:44:25;;;;;;;10.52;7.13;;;;;;;14.13;70.16;98783.38;2618204;39;20447;-72
2021/08/26 01:46:57;;;;;;;15.90;6.20;;;;;;;14.09;70.38;98778.72;2617174;54;20018;-72
2021/08/26 01:49:27;;;;;;;12.25;6.60;;;;;;;14.12;70.66;98780.94;2617825;54;20038;-73
2021/08/26 01:51:56;;;;;;;9.52;6.65;;;;;;;14.22;70.52;98783.13;2618575;54;20078;-72
2021/08/26 01:54:26;;;;;;;9.40;6.47;;;;;;;14.29;70.26;98776.72;2618452;54;20022;-71
2021/08/26 01:56:59;;;;;;;11.05;6.78;;;;;;;14.35;70.19;98772.38;2618296;54;20078;-72
2021/08/26 01:59:29;;;;;;;9.90;6.30;;;;;;;14.38;69.56;98762.13;2618881;54;20035;-73
2021/08/26 02:01:59;;;;;;;10.80;6.60;;;;;;;14.35;70.36;98762.53;2618858;54;20032;-72
2021/08/26 02:04:29;;;;;;;9.90;6.45;;;;;;;14.31;70.11;98758.69;2617099;47;20085;-71
2021/08/26 02:06:58;;;;;;;8.35;6.35;;;;;;;14.34;69.98;98758.25;2617465;39;20521;-72
2021/08/26 02:09:28;;;;;;;13.07;6.13;;;;;;;14.37;69.58;98738.41;2617552;54;20026;-73
2021/08/26 02:12:00;;;;;;;13.05;6.47;;;;;;;14.35;69.89;98740.47;2617181;47;20077;-72
2021/08/26 02:14:31;;;;;;;11.60;6.60;;;;;;;14.41;69.59;98747.56;2617324;54;20053;-72
2021/08/26 02:17:01;;;;;;;8.43;5.97;;;;;;;14.42;69.52;98733.25;2617316;39;20583;-72
2021/08/26 02:19:31;;;;;;;12.20;6.38;;;;;;;14.46;69.58;98725.66;2617358;54;20027;-71
2021/08/26 02:22:00;;;;;;;11.40;6.70;;;;;;;14.47;69.46;98717.44;2617680;39;20456;-72
2021/08/26 02:24:30;;;;;;;12.45;7.55;;;;;;;14.52;69.21;98717.63;2617530;39;20477;-73
2021/08/26 02:27:02;;;;;;;11.57;7.38;;;;;;;14.55;68.85;98725.16;2616922;47;20043;-71
2021/08/26 02:29:32;;;;;;;10.10;6.82;;;;;;;14.56;69.08;98720.66;2617173;54;20039;-71
2021/08/26 02:32:01;;;;;;;10.25;6.38;;;;;;;14.55;68.87;98713.72;2617171;54;20038;-72
2021/08/26 02:34:31;;;;;;;8.90;6.68;;;;;;;14.54;68.74;98717.41;2617160;54;20033;-72
2021/08/26 02:37:02;;;;;;;10.07;6.25;;;;;;;14.43;69.50;98718.09;2618112;54;20030;-71
2021/08/26 02:39:31;;;;;;;10.70;6.53;;;;;;;14.41;69.54;98709.50;2618579;54;20038;-72
2021/08/26 02:42:04;;;;;;;13.85;6.28;;;;;;;14.39;69.50;98707.06;2618522;54;20030;-72
2021/08/26 02:44:33;;;;;;;10.20;6.05;;;;;;;14.44;70.02;98706.41;2618823;54;20027;-71
2021/08/26 02:47:03;;;;;;;12.60;6.32;;;;;;;14.33;69.75;98708.78;2618123;54;20031;-71
2021/08/26 02:49:33;;;;;;;9.98;7.05;;;;;;;14.24;69.99;98704.75;2618431;54;20549;-72
2021/08/26 02:52:02;;;;;;;8.43;6.40;;;;;;;14.19;70.28;98696.63;2618333;54;20034;-72
2021/08/26 02:54:32;;;;;;;9.52;6.93;;;;;;;14.18;70.44;98702.16;2618422;54;20046;-72
2021/08/26 02:57:04;;;;;;;9.93;6.78;;;;;;;14.17;70.30;98693.38;2617276;47;20023;-72
2021/08/26 02:59:34;;;;;;;9.70;6.47;;;;;;;14.17;70.47;98696.03;2618466;54;20038;-72
2021/08/26 03:02:04;;;;;;;10.95;7.32;;;;;;;14.17;70.17;98693.38;2617782;47;20049;-73
2021/08/26 03:04:34;;;;;;;10.35;7.43;;;;;;;14.17;70.49;98696.03;2618425;54;20035;-72
2021/08/26 03:07:04;;;;;;;10.77;7.28;;;;;;;14.23;70.04;98699.66;2617367;47;20038;-72
2021/08/26 03:09:34;;;;;;;11.52;7.43;;;;;;;14.25;70.40;98701.09;2618396;54;20046;-72
2021/08/26 03:12:07;;;;;;;9.80;7.45;;;;;;;14.29;70.20;98702.28;2617622;47;20083;-71
2021/08/26 03:14:36;;;;;;;12.85;7.30;;;;;;;14.30;70.03;98703.88;2618204;54;20043;-73
2021/08/26 03:17:06;;;;;;;9.32;6.50;;;;;;;14.29;70.04;98699.63;2617785;54;20589;-73
2021/08/26 03:19:35;;;;;;;8.77;7.20;;;;;;;14.28;70.67;98697.16;2618243;54;20030;-73
2021/08/26 03:22:05;;;;;;;13.82;7.10;;;;;;;14.31;70.13;98699.38;2618098;54;20031;-73
2021/08/26 03:24:35;;;;;;;13.02;6.40;;;;;;;14.33;70.18;98697.34;2617515;47;20034;-72
2021/08/26 03:27:07;;;;;;;12.60;7.53;;;;;;;14.37;70.04;98699.34;2617579;39;20752;-72
2021/08/26 03:29:37;;;;;;;14.57;8.07;;;;;;;14.36;70.20;98694.22;2618115;54;20026;-73
2021/08/26 03:32:07;;;;;;;11.60;6.97;;;;;;;14.37;69.78;98696.66;2617539;47;20038;-70
2021/08/26 03:34:37;;;;;;;12.35;7.50;;;;;;;14.35;70.01;98697.91;2618059;54;20581;-73
2021/08/26 03:37:06;;;;;;;10.65;7.45;;;;;;;14.34;70.32;98693.63;2616177;47;20034;-71
2021/08/26 03:39:36;;;;;;;11.18;7.40;;;;;;;14.30;70.35;98690.59;2617639;54;20029;-73
2021/08/26 03:42:08;;;;;;;10.43;7.40;;;;;;;14.22;70.76;98698.84;2618090;54;20033;-72
2021/08/26 03:44:38;;;;;;;14.38;7.25;;;;;;;14.22;70.83;98696.19;2618072;54;20038;-71
2021/08/26 03:47:07;;;;;;;13.63;7.43;;;;;;;14.29;70.45;98693.50;2617930;54;20061;-72
2021/08/26 03:49:37;;;;;;;12.07;7.57;;;;;;;14.31;70.81;98694.88;2618137;54;20030;-72
2021/08/26 03:52:07;;;;;;;11.57;8.13;;;;;;;14.36;70.35;98696.88;2618130;54;20250;-72
2021/08/26 03:54:38;;;;;;;12.38;7.55;;;;;;;14.35;70.53;98695.25;2618492;39;20426;-72
2021/08/26 03:57:11;;;;;;;12.90;7.35;;;;;;;14.31;70.63;98692.22;2617065;47;20030;-72
2021/08/26 03:59:40;;;;;;;11.45;7.68;;;;;;;14.34;70.80;98689.13;2618222;54;20041;-72
2021/08/26 04:02:10;;;;;;;9.68;7.00;;;;;;;14.38;70.53;98685.00;2618449;39;20425;-72
2021/08/26 04:04:40;;;;;;;11.95;8.00;;;;;;;14.42;70.75;98682.72;2617468;47;20039;-72
2021/08/26 04:07:11;;;;;;;12.65;8.07;;;;;;;14.45;70.26;98676.97;2617666;54;20035;-71
2021/08/26 04:09:41;;;;;;;9.25;7.43;;;;;;;14.44;70.68;98677.16;2618276;54;20035;-71
2021/08/26 04:12:13;;;;;;;12.65;7.65;;;;;;;14.45;70.46;98670.81;2618131;54;20082;-72
2021/08/26 04:14:43;;;;;;;10.73;7.78;;;;;;;14.45;70.49;98673.47;2617252;47;20059;-72
2021/08/26 04:17:12;;;;;;;11.77;7.53;;;;;;;14.47;70.17;98676.72;2617546;54;20051;-72
2021/08/26 04:19:42;;;;;;;13.95;8.10;;;;;;;14.44;70.06;98674.50;2618106;54;20074;-71
2021/08/26 04:22:11;;;;;;;15.85;8.75;;;;;;;14.40;70.55;98660.81;2618098;54;20034;-72
2021/08/26 04:24:41;;;;;;;11.75;8.35;;;;;;;14.43;70.25;98660.41;2618229;54;20081;-72
2021/08/26 04:27:13;;;;;;;11.20;8.02;;;;;;;14.36;70.59;98649.81;2617629;54;20030;-73
2021/08/26 04:29:43;;;;;;;12.30;8.00;;;;;;;14.38;70.35;98658.41;2619002;39;20415;-72
2021/08/26 04:32:12;;;;;;;11.35;7.22;;;;;;;14.36;70.13;98664.97;2618401;54;20046;-72
2021/08/26 04:34:42;;;;;;;12.65;7.70;;;;;;;14.39;70.16;98661.88;2617731;54;20030;-72
2021/08/26 04:37:12;;;;;;;12.52;8.18;;;;;;;14.41;70.13;98664.28;2617114;47;20022;-71
2021/08/26 04:39:41;;;;;;;9.77;7.43;;;;;;;14.40;70.22;98662.69;2619001;39;20447;-72
2021/08/26 04:42:14;;;;;;;12.50;7.38;;;;;;;14.39;70.47;98659.22;2617489;54;20042;-73
2021/08/26 04:44:43;;;;;;;10.60;6.95;;;;;;;14.36;70.70;98660.44;2617779;47;20038;-72
2021/08/26 04:47:13;;;;;;;10.48;7.75;;;;;;;14.43;70.31;98657.72;2617975;54;20057;-72
2021/08/26 04:49:42;;;;;;;9.57;7.30;;;;;;;14.41;70.50;98653.66;2618650;39;20434;-72
2021/08/26 04:52:12;;;;;;;11.38;7.38;;;;;;;14.43;70.15;98651.59;2618248;54;20038;-72
2021/08/26 04:54:43;;;;;;;10.23;7.88;;;;;;;14.47;70.33;98655.44;2618164;54;20070;-72
2021/08/26 04:57:15;;;;;;;16.63;7.55;;;;;;;14.53;70.26;98649.25;2617417;39;20438;-72
2021/08/26 04:59:45;;;;;;;12.38;7.85;;;;;;;14.53;70.51;98650.09;2618140;54;20026;-72
2021/08/26 05:02:15;;;;;;;10.50;8.35;;;;;;;14.55;70.52;98656.00;2617969;54;20033;-72
2021/08/26 05:04:45;;;;;;;11.52;8.38;;;;;;;14.54;70.30;98661.56;2617941;54;20022;-72
2021/08/26 05:07:15;;;;;;;12.32;7.40;;;;;;;14.51;70.29;98648.69;2617254;39;20435;-72
2021/08/26 05:09:44;;;;;;;12.20;7.85;;;;;;;14.49;70.43;98656.06;2618007;54;20018;-72
2021/08/26 05:12:17;;;;;;;11.07;7.80;;;;;;;14.52;70.48;98663.59;2617840;54;20031;-71
2021/08/26 05:14:47;;;;;;;11.07;7.80;;;;;;;14.57;70.44;98664.59;2618813;31;20550;-72
2021/08/26 05:17:17;;;;;;;14.73;7.70;;;;;;;14.63;70.02;98667.38;2616001;54;20674;-72
2021/08/26 05:19:47;;;;;;;11.73;7.68;;;;;;;14.64;70.11;98666.34;2616654;54;20053;-72
2021/08/26 05:22:16;;;;;;;11.68;8.70;;;;;;;14.69;70.26;98661.97;2616294;47;20072;-72
2021/08/26 05:24:47;;;;;;;11.38;7.97;;;;;;;14.72;69.96;98674.84;2616529;54;20129;-71
2021/08/26 05:27:19;;;;;;;17.27;8.30;;;;;;;14.68;70.11;98673.66;2616009;54;20045;-72
2021/08/26 05:29:49;;;;;;;12.25;8.35;;;;;;;14.66;70.72;98672.28;2616637;54;20057;-73
2021/08/26 05:32:22;;;;;;;11.63;8.60;;;;;;;14.58;71.04;98671.53;2616337;54;20059;-73
2021/08/26 05:34:52;;;;;;;12.73;9.13;;;;;;;14.52;71.33;98674.25;2616407;54;20292;-74
2021/08/26 05:37:21;;;;;;;12.85;9.00;;;;;;;14.49;71.53;98670.19;2615825;54;20042;-74
2021/08/26 05:39:51;;;;;;;11.27;9.02;;;;;;;14.44;72.25;98674.50;2616331;54;20053;-74
2021/08/26 05:42:23;;;;;;;10.73;8.88;;;;;;;14.44;71.97;98674.50;2616725;39;20208;-73
2021/08/26 05:44:52;;;;;;;14.60;9.93;;;;;;;14.41;72.81;98674.94;2617022;31;20580;-74
2021/08/26 05:47:22;;;;;;;14.45;10.18;;;;;;;14.39;72.89;98667.19;2616459;54;20049;-74
2021/08/26 05:49:52;;;;;;;13.50;10.63;;;;;;;14.44;72.90;98672.66;2616403;54;20577;-74
2021/08/26 05:52:21;;;;;;;16.90;10.73;;;;;;;14.43;72.78;98667.56;2616238;54;20101;-74
2021/08/26 05:54:51;;;;;;;14.18;11.20;;;;;;;14.43;72.76;98667.56;2616397;54;20054;-73
2021/08/26 05:57:23;;;;;;;15.93;11.02;;;;;;;14.39;72.80;98669.84;2616112;54;20061;-73
2021/08/26 05:59:53;;;;;;;14.55;10.85;;;;;;;14.40;73.04;98670.66;2616617;54;20042;-72
2021/08/26 06:02:22;;;;;;;19.67;11.70;;;;;;;14.48;73.02;98670.38;2616769;54;20073;-74
2021/08/26 06:04:52;;;;;;;13.30;10.70;;;;;;;14.53;73.40;98670.53;2616964;54;20041;-73
2021/08/26 06:07:22;;;;;;;13.38;10.35;;;;;;;14.60;72.81;98672.09;2616640;54;20035;-72
2021/08/26 06:09:51;;;;;;;15.18;11.02;;;;;;;14.57;72.72;98677.88;2618455;47;20039;-74
2021/08/26 06:12:23;;;;;;;13.75;10.40;;;;;;;14.57;72.92;98669.91;2622996;54;20026;-74
2021/08/26 06:14:53;;;;;;;13.82;10.40;;;;;;;14.54;72.60;98670.34;2623254;54;20037;-74
2021/08/26 06:17:23;;;;;;;15.25;9.88;;;;;;;14.45;73.29;98674.31;2621761;47;20025;-74
2021/08/26 06:19:52;;;;;;;16.65;11.18;;;;;;;14.46;73.39;98675.09;2623172;54;20094;-71
2021/08/26 06:22:22;;;;;;;11.85;9.48;;;;;;;14.52;73.77;98680.38;2623655;54;20673;-73
2021/08/26 06:24:52;;;;;;;11.63;9.10;;;;;;;14.64;73.19;98683.13;2623446;47;20031;-71
2021/08/26 06:27:24;;;;;;;10.68;8.63;;;;;;;14.68;72.91;98680.81;2623427;54;20026;-73
2021/08/26 06:29:53;;;;;;;11.25;8.80;;;;;;;14.69;72.80;98687.75;2622988;54;20023;-73
2021/08/26 06:32:23;;;;;;;11.07;8.80;;;;;;;14.67;73.26;98687.19;2623403;54;20030;-73
2021/08/26 06:34:53;;;;;;;9.57;8.57;;;;;;;14.66;73.25;98680.25;2624393;39;20086;-72
2021/08/26 06:37:22;;;;;;;12.77;8.60;;;;;;;14.65;73.49;98686.59;2623694;54;20022;-74
2021/08/26 06:39:52;;;;;;;13.32;8.95;;;;;;;14.63;73.35;98691.31;2624809;54;20074;-73
2021/08/26 06:42:24;;;;;;;10.40;8.30;;;;;;;14.67;73.70;98682.69;2623685;54;20019;-73
2021/08/26 06:44:54;;;;;;;12.57;8.82;;;;;;;14.69;73.69;98685.91;2623874;47;20034;-73
2021/08/26 06:47:23;;;;;;;11.00;8.85;;;;;;;14.72;73.21;98682.81;2623338;54;20055;-74
2021/08/26 06:49:53;;;;;;;11.82;8.52;;;;;;;14.69;73.64;98677.94;2622838;47;20090;-74
2021/08/26 06:52:23;;;;;;;10.98;8.25;;;;;;;14.69;73.22;98680.59;2624776;54;20026;-73
2021/08/26 06:54:52;;;;;;;12.02;9.05;;;;;;;14.71;73.45;98681.19;2623175;54;20014;-73
2021/08/26 06:57:27;;;;;;;10.77;8.27;;;;;;;14.72;73.68;98677.50;2623152;54;20034;-73
2021/08/26 06:59:57;;;;;;;10.95;8.45;;;;;;;14.78;73.52;98676.63;2623297;54;20057;-73
2021/08/26 07:02:27;;;;;;;10.32;9.23;;;;;;;14.79;73.38;98682.75;2622658;54;20030;-75
2021/08/26 07:04:57;;;;;;;13.15;9.15;;;;;;;14.82;73.42;98679.66;2622680;54;20023;-74
2021/08/26 07:07:26;;;;;;;11.13;9.10;;;;;;;14.82;73.48;98690.31;2621791;54;20018;-74
2021/08/26 07:09:56;;;;;;;10.70;8.95;;;;;;;14.84;73.68;98683.69;2619583;54;20030;-73
2021/08/26 07:12:30;;;;;;;12.90;9.20;;;;;;;14.79;73.82;98688.06;2619260;54;20049;-73
2021/08/26 07:15:00;;;;;;;12.02;9.32;;;;;;;14.76;73.70;98696.50;2619099;54;20034;-73
2021/08/26 07:17:30;;;;;;;12.32;9.40;;;;;;;14.79;73.66;98698.72;2618748;54;20047;-74
2021/08/26 07:20:00;;;;;;;16.30;9.82;;;;;;;14.82;74.17;98695.63;2618144;47;20581;-74
2021/08/26 07:22:29;;;;;;;11.27;10.07;;;;;;;14.91;73.74;98696.13;2619222;39;20442;-74
2021/08/26 07:24:59;;;;;;;14.55;10.27;;;;;;;14.93;73.51;98704.69;2618825;54;20030;-73
2021/08/26 07:27:31;;;;;;;11.50;9.20;;;;;;;14.89;73.65;98703.50;2618699;54;20041;-74
2021/08/26 07:30:01;;;;;;;12.27;8.60;;;;;;;14.89;73.99;98698.19;2619272;39;20414;-74
2021/08/26 07:32:30;;;;;;;10.93;8.70;;;;;;;14.90;73.82;98697.97;2617807;47;20034;-74
2021/08/26 07:35:00;;;;;;;11.50;9.75;;;;;;;14.94;74.11;98701.81;2618311;54;20038;-74
2021/08/26 07:37:30;;;;;;;11.02;8.80;;;;;;;14.93;74.00;98705.50;2618066;47;20038;-73
2021/08/26 07:39:59;;;;;;;11.50;8.82;;;;;;;14.95;74.40;98710.63;2619018;39;20410;-72
2021/08/26 07:42:31;;;;;;;16.60;12.35;;;;;;;14.98;74.49;98705.66;2618600;54;20538;-72
2021/08/26 07:45:04;;;;;;;13.05;10.05;;;;;;;14.94;74.00;98709.81;2618417;54;20030;-73
2021/08/26 07:47:34;;;;;;;12.85;10.50;;;;;;;14.93;74.67;98715.34;2618068;39;20530;-72
2021/08/26 07:50:07;;;;;;;13.60;11.55;;;;;;;14.97;74.78;98708.53;2617980;54;20054;-72
2021/08/26 07:52:37;;;;;;;12.82;10.25;;;;;;;14.99;74.65;98709.13;2618332;54;20090;-73
2021/08/26 07:55:07;;;;;;;12.63;10.00;;;;;;;14.91;74.71;98712.09;2618241;54;20039;-74
2021/08/26 07:57:40;;;;;;;12.10;10.05;;;;;;;14.90;74.78;98710.44;2618371;54;20030;-74
2021/08/26 08:00:10;;;;;;;14.15;11.15;;;;;;;14.85;75.25;98711.13;2618379;54;20554;-73
2021/08/26 08:02:40;;;;;;;12.38;11.15;;;;;;;14.83;75.39;98707.88;2618339;54;20030;-73
2021/08/26 08:05:11;;;;;;;13.00;10.55;;;;;;;14.79;74.98;98714.69;2617599;54;20026;-72
2021/08/26 08:07:45;;;;;;;14.27;11.77;;;;;;;14.81;75.19;98710.75;2617356;54;20038;-73
2021/08/26 08:10:15;;;;;;;13.85;12.40;;;;;;;14.97;75.60;98716.53;2618170;54;20027;-74
2021/08/26 08:12:47;;;;;;;11.05;9.55;;;;;;;15.05;75.09;98718.88;2618360;54;20553;-74
2021/08/26 08:15:17;;;;;;;12.00;10.65;;;;;;;15.02;74.99;98714.00;2618696;39;20727;-73
2021/08/26 08:17:46;;;;;;;12.82;10.93;;;;;;;15.15;75.40;98708.53;2617048;47;20034;-73
2021/08/26 08:20:16;;;;;;;15.32;11.30;;;;;;;15.28;75.41;98703.03;2618086;54;20066;-72
2021/08/26 08:22:48;;;;;;;15.85;12.05;;;;;;;15.54;74.47;98709.81;2617513;50;20026;-72
2021/08/26 08:25:18;;;;;;;12.60;11.02;;;;;;;15.78;73.88;98707.25;2617016;54;20633;-74
2021/08/26 08:27:50;;;;;;;11.88;10.55;;;;;;;15.90;73.95;98697.44;2617781;47;20039;-73
2021/08/26 08:30:26;;;;;;;12.68;10.88;;;;;;;16.02;73.91;98700.13;2617555;39;20422;-74
2021/08/26 08:32:58;;;;;;;13.30;10.80;;;;;;;16.16;73.32;98703.38;2617065;54;20034;-73
2021/08/26 08:35:27;;;;;;;12.85;11.25;;;;;;;16.33;73.25;98707.81;2616919;47;20027;-74
2021/08/26 08:37:57;;;;;;;12.50;9.75;;;;;;;16.53;72.87;98703.94;2617255;54;20030;-72
2021/08/26 08:40:26;;;;;;;13.05;9.27;;;;;;;16.65;72.71;98709.28;2617705;31;20533;-75
2021/08/26 08:42:59;;;;;;;13.27;8.70;;;;;;;16.63;72.72;98711.38;2617494;39;20448;-74
2021/08/26 08:45:29;;;;;;;10.88;8.10;;;;;;;16.47;72.45;98700.38;2623222;54;20122;-74
2021/08/26 08:48:00;;;;;;;10.68;8.13;;;;;;;16.46;72.81;98706.75;2623559;54;20030;-74
2021/08/26 08:50:30;;;;;;;11.35;7.88;;;;;;;16.52;72.21;98702.34;2623561;54;20269;-74
2021/08/26 08:53:01;;;;;;;7.97;6.47;;;;;;;16.59;71.98;98705.69;2624436;54;20026;-73
2021/08/26 08:55:31;;;;;;;8.75;6.82;;;;;;;16.64;71.49;98705.81;2625193;54;20152;-73
2021/08/26 08:58:03;;;;;;;6.50;5.78;;;;;;;16.79;71.25;98703.50;2624436;54;20038;-73
2021/08/26 09:00:33;;;;;;;8.13;6.57;;;;;;;16.83;70.66;98695.84;2625347;39;20442;-74
2021/08/26 09:03:03;;;;;;;10.18;6.15;;;;;;;16.86;69.94;98702.53;2625242;54;20557;-73
2021/08/26 09:05:52;;;;;;;8.20;6.72;;;;;;;16.97;69.81;98704.38;2626003;54;20566;-72
2021/08/26 09:08:23;;;;;;;7.93;5.93;;;;;;;17.06;69.62;98695.78;2625343;54;20065;-73
2021/08/26 09:10:55;;;;;;;8.95;6.47;;;;;;;17.23;69.20;98695.03;2625103;47;20031;-73
2021/08/26 09:13:36;;;;;;;9.07;6.40;;;;;;;17.33;69.09;98693.34;2625459;54;20570;-72
2021/08/26 09:16:06;;;;;;;7.45;6.10;;;;;;;17.33;68.68;98692.53;2618341;54;20057;-72
2021/08/26 09:18:36;;;;;;;7.32;6.07;;;;;;;17.42;68.64;98688.41;2618709;54;20073;-74
2021/08/26 09:21:09;;;;;;;7.00;5.82;;;;;;;17.44;68.34;98689.00;2617990;47;20054;-72
2021/08/26 09:23:54;;;;;;;7.35;5.47;;;;;;;17.49;68.25;98690.94;2618294;54;20050;-73
2021/08/26 09:26:25;;;;;;;8.70;6.28;;;;;;;17.46;68.01;98686.09;2618001;54;20125;-73
2021/08/26 09:29:03;;;;;;;6.28;5.07;;;;;;;17.54;68.11;98680.34;2617771;47;20042;-74
2021/08/26 09:31:34;;;;;;;5.75;4.78;;;;;;;17.58;67.52;98684.97;2618581;39;20698;-72
2021/08/26 09:34:06;;;;;;;7.78;5.53;;;;;;;17.60;67.65;98683.94;2618876;54;20022;-73
2021/08/26 09:36:39;;;;;;;6.28;4.78;;;;;;;17.66;66.92;98677.63;2618062;47;20031;-71
2021/08/26 09:39:15;;;;;;;5.65;4.50;;;;;;;17.73;66.95;98675.59;2618412;54;20577;-73
2021/08/26 09:41:48;;;;;;;9.82;5.45;;;;;;;17.85;66.42;98671.03;2618989;54;20058;-72
2021/08/26 09:44:22;;;;;;;7.78;5.50;;;;;;;18.00;66.33;98676.63;2620134;54;20038;-73
2021/08/26 09:46:53;;;;;;;6.72;5.78;;;;;;;18.09;65.63;98669.00;2618868;54;20049;-73
2021/08/26 09:49:25;;;;;;;5.28;4.78;;;;;;;18.27;65.51;98668.72;2620211;54;20049;-73
2021/08/26 09:52:08;;;;;;;8.52;5.25;;;;;;;18.10;65.86;98681.31;2619608;54;20569;-72
2021/08/26 09:54:41;;;;;;;8.20;4.90;;;;;;;17.86;65.70;98677.97;2617912;54;20035;-72
2021/08/26 09:57:24;;;;;;;5.78;5.18;;;;;;;17.82;66.24;98679.53;2619145;54;20085;-74
2021/08/26 09:59:58;;;;;;;6.13;5.20;;;;;;;17.74;65.68;98682.56;2618073;47;20044;-73
2021/08/26 10:02:29;;;;;;;7.32;4.50;;;;;;;17.62;65.24;98682.63;2618306;54;20134;-73
2021/08/26 10:05:00;;;;;;;9.23;4.85;;;;;;;17.47;62.44;98696.56;2617619;54;20026;-73
2021/08/26 10:07:30;;;;;;;6.28;5.10;;;;;;;17.31;61.82;98703.47;2617929;54;20034;-73
2021/08/26 10:10:00;;;;;;;7.93;5.55;;;;;;;17.29;61.32;98702.88;2618302;47;20057;-73
2021/08/26 10:12:30;;;;;;;7.22;5.40;;;;;;;17.20;61.85;98693.63;2618141;47;20038;-74
2021/08/26 10:15:02;;;;;;;8.20;5.25;;;;;;;17.14;61.88;98699.91;2618915;54;20026;-72
2021/08/26 10:17:32;;;;;;;13.15;5.55;;;;;;;16.96;61.65;98698.22;2618971;54;20550;-73
2021/08/26 10:20:02;;;;;;;9.43;5.47;;;;;;;16.86;61.25;98695.38;2619778;39;20712;-72
2021/08/26 10:22:34;;;;;;;9.50;5.40;;;;;;;16.91;61.23;98697.31;2619203;39;20459;-72
2021/08/26 10:25:04;;;;;;;7.72;4.65;;;;;;;17.08;61.11;98679.50;2619041;54;20030;-71
2021/08/26 10:27:35;;;;;;;7.75;5.22;;;;;;;17.22;60.37;98683.50;2618604;47;20053;-73
2021/08/26 10:30:08;;;;;;;7.38;4.43;;;;;;;17.37;59.55;98672.31;2619049;47;20026;-73
2021/08/26 10:32:38;;;;;;;5.55;3.92;;;;;;;17.42;58.92;98677.72;2618343;47;20034;-76
2021/08/26 10:35:12;;;;;;;7.55;4.05;;;;;;;17.54;57.95;98678.47;2619134;54;20053;-71
2021/08/26 10:37:54;;;;;;;5.85;3.50;;;;;;;17.67;57.40;98679.22;2619469;39;20442;-75
2021/08/26 10:40:36;;;;;;;13.23;5.57;;;;;;;17.83;56.30;98681.94;2618580;54;20065;-72
2021/08/26 10:43:07;;;;;;;7.13;4.63;;;;;;;17.87;56.57;98676.91;2618805;54;20022;-73
2021/08/26 10:45:54;;;;;;;4.88;3.97;;;;;;;17.97;55.91;98673.63;2617037;54;20045;-74
2021/08/26 10:48:25;;;;;;;8.25;4.00;;;;;;;18.20;55.45;98676.09;2619378;39;20434;-73
2021/08/26 10:51:15;;;;;;;4.10;3.03;;;;;;;18.25;53.84;98683.41;2618806;54;20577;-75
2021/08/26 10:53:46;;;;;;;6.75;3.80;;;;;;;18.30;54.36;98681.59;2618621;54;20034;-74
2021/08/26 10:56:26;;;;;;;6.72;3.55;;;;;;;18.61;53.23;98681.22;2619048;54;20546;-73
2021/08/26 10:58:57;;;;;;;5.88;3.47;;;;;;;18.56;52.83;98672.06;2618860;54;20039;-72
2021/08/26 11:01:44;;;;;;;7.43;3.70;;;;;;;18.42;53.96;98670.00;2619087;39;20388;-74
2021/08/26 11:04:27;;;;;;;6.55;3.88;;;;;;;18.48;53.18;98664.47;2618433;54;20641;-71
2021/08/26 11:06:56;;;;;;;5.45;3.58;;;;;;;18.58;53.31;98671.81;2618466;54;20031;-71
2021/08/26 11:09:44;;;;;;;6.07;3.40;;;;;;;18.66;52.76;98663.38;2617757;54;20038;-73
2021/08/26 11:12:29;;;;;;;7.05;3.17;;;;;;;18.76;51.80;98660.03;2618459;54;20045;-73
2021/08/26 11:15:02;;;;;;;4.63;3.55;;;;;;;18.70;52.05;98659.16;2618459;54;20050;-73
2021/08/26 11:17:38;;;;;;;6.60;3.67;;;;;;;18.84;51.47;98667.63;2618077;54;20559;-75
2021/08/26 11:20:30;;;;;;;7.72;4.00;;;;;;;19.15;51.26;98660.75;2618698;54;20041;-73
2021/08/26 11:23:12;;;;;;;4.82;3.28;;;;;;;19.17;49.79;98665.84;2618473;54;20042;-73
2021/08/26 11:25:42;;;;;;;5.28;3.40;;;;;;;18.90;50.84;98660.44;2617801;47;20038;-73
2021/08/26 11:28:33;;;;;;;5.47;3.90;;;;;;;18.84;50.61;98659.59;2618175;54;20110;-72
2021/08/26 11:31:16;;;;;;;7.47;4.40;;;;;;;18.89;50.56;98661.53;2618487;54;20066;-74
2021/08/26 11:33:50;;;;;;;6.18;3.47;;;;;;;19.18;50.19;98654.06;2618473;54;20589;-74
2021/08/26 11:36:20;;;;;;;4.60;3.30;;;;;;;19.38;49.31;98656.16;2618381;54;20535;-73
2021/08/26 11:38:57;;;;;;;5.28;3.72;;;;;;;19.61;49.36;98657.72;2618753;39;20443;-74
2021/08/26 11:41:26;;;;;;;6.25;3.63;;;;;;;19.85;48.46;98650.19;2618763;39;20470;-75
2021/08/26 11:43:56;;;;;;;9.20;3.50;;;;;;;20.01;47.79;98650.03;2618798;39;20444;-73
2021/08/26 11:46:27;;;;;;;5.15;3.92;;;;;;;19.87;47.78;98650.72;2619107;39;20451;-74
2021/08/26 11:49:00;;;;;;;7.60;3.67;;;;;;;19.67;47.89;98657.53;2617342;51;20071;-72